createdAt,value
2023-04-23T00:01:27.017Z,75
2023-04-23T00:03:26.908Z,75
2023-04-23T00:05:26.719Z,76
2023-04-23T00:07:29.021Z,75
2023-04-23T00:09:27.152Z,76
2023-04-23T00:11:27.618Z,76
2023-04-23T00:13:26.669Z,76
2023-04-23T00:15:27.235Z,76
2023-04-23T00:17:26.829Z,76
2023-04-23T00:19:27.268Z,76
2023-04-23T00:21:27.290Z,75
2023-04-23T00:23:27.316Z,75
2023-04-23T00:25:28.025Z,76
2023-04-23T00:27:27.296Z,75
2023-04-23T00:29:27.453Z,75
2023-04-23T00:31:27.897Z,74
2023-04-23T00:33:27.022Z,75
2023-04-23T00:35:27.243Z,76
2023-04-23T00:37:29.112Z,76
2023-04-23T00:39:27.523Z,75
2023-04-23T00:41:28.313Z,75
2023-04-23T00:43:27.729Z,75
2023-04-23T00:45:27.650Z,75
2023-04-23T00:47:27.804Z,75
2023-04-23T00:49:29.083Z,75
2023-04-23T00:51:27.721Z,74
2023-04-23T00:53:27.693Z,74
2023-04-23T00:55:27.805Z,74
2023-04-23T00:57:30.037Z,75
2023-04-23T00:59:27.952Z,75
2023-04-23T01:01:28.822Z,74
2023-04-23T01:03:29.867Z,75
2023-04-23T01:05:28.129Z,75
2023-04-23T01:07:29.337Z,74
2023-04-23T01:09:27.631Z,75
2023-04-23T01:11:28.115Z,75
2023-04-23T01:13:28.101Z,75
2023-04-23T01:15:29.701Z,75
2023-04-23T01:17:28.251Z,74
2023-04-23T01:19:28.001Z,74
2023-04-23T01:21:28.980Z,74
2023-04-23T01:23:28.314Z,75
2023-04-23T01:25:30.120Z,75
2023-04-23T01:27:28.357Z,76
2023-04-23T01:29:28.408Z,76
2023-04-23T01:31:29.811Z,75
2023-04-23T01:33:29.895Z,75
2023-04-23T01:35:28.520Z,75
2023-04-23T01:39:30.262Z,75
2023-04-23T01:41:28.509Z,75
2023-04-23T01:43:28.584Z,75
2023-04-23T01:45:28.719Z,75
2023-04-23T01:47:28.766Z,75
2023-04-23T01:49:28.762Z,75
2023-04-23T01:51:29.636Z,76
2023-04-23T01:53:28.786Z,76
2023-04-23T01:55:28.878Z,77
2023-04-23T01:57:29.905Z,77
2023-04-23T01:59:29.029Z,77
2023-04-23T02:01:29.001Z,77
2023-04-23T02:03:29.638Z,77
2023-04-23T02:07:29.227Z,76
2023-04-23T02:09:29.833Z,76
2023-04-23T02:11:29.079Z,76
2023-04-23T02:13:28.766Z,76
2023-04-23T02:17:29.332Z,77
2023-04-23T02:19:29.250Z,76
2023-04-23T02:21:29.531Z,76
2023-04-23T02:23:29.364Z,76
2023-04-23T02:25:29.368Z,77
2023-04-23T02:27:30.218Z,78
2023-04-23T02:29:29.414Z,78
2023-04-23T02:31:29.565Z,78
2023-04-23T02:33:29.810Z,78
2023-04-23T02:35:29.559Z,78
2023-04-23T02:37:29.678Z,78
2023-04-23T02:39:30.290Z,77
2023-04-23T02:41:29.702Z,77
2023-04-23T02:43:29.681Z,77
2023-04-23T02:45:29.930Z,77
2023-04-23T02:47:29.935Z,77
2023-04-23T02:49:29.885Z,77
2023-04-23T02:51:30.087Z,77
2023-04-23T02:55:30.322Z,77
2023-04-23T02:57:30.046Z,78
2023-04-23T02:59:30.109Z,78
2023-04-23T03:01:30.182Z,78
2023-04-23T03:03:30.312Z,78
2023-04-23T03:05:30.318Z,78
2023-04-23T03:07:30.233Z,77
2023-04-23T03:09:30.438Z,77
2023-04-23T03:11:30.266Z,77
2023-04-23T03:13:30.365Z,78
2023-04-23T03:15:30.398Z,78
2023-04-23T03:17:30.399Z,78
2023-04-23T03:19:31.056Z,78
2023-04-23T03:21:30.517Z,79
2023-04-23T03:23:30.433Z,79
2023-04-23T03:25:30.592Z,79
2023-04-23T03:27:30.606Z,80
2023-04-23T03:29:30.429Z,80
2023-04-23T03:31:30.499Z,80
2023-04-23T03:33:30.629Z,81
2023-04-23T03:35:30.748Z,83
2023-04-23T03:37:30.487Z,83
2023-04-23T03:39:30.671Z,83
2023-04-23T03:41:30.614Z,83
2023-04-23T03:43:30.990Z,83
2023-04-23T03:45:30.634Z,83
2023-04-23T03:47:30.766Z,83
2023-04-23T03:49:30.791Z,83
2023-04-23T03:51:30.923Z,83
2023-04-23T03:53:31.228Z,84
2023-04-23T03:55:31.243Z,84
2023-04-23T03:57:31.140Z,84
2023-04-23T03:59:33.198Z,84
2023-04-23T04:01:32.482Z,85
2023-04-23T04:03:32.565Z,85
2023-04-23T04:05:32.506Z,85
2023-04-23T04:07:32.636Z,85
2023-04-23T04:09:32.291Z,85
2023-04-23T04:11:32.859Z,85
2023-04-23T04:15:32.540Z,86
2023-04-23T04:17:31.053Z,86
2023-04-23T04:19:32.775Z,86
2023-04-23T04:21:32.594Z,86
2023-04-23T04:23:32.947Z,86
2023-04-23T04:25:32.813Z,86
2023-04-23T04:27:32.718Z,86
2023-04-23T04:29:31.561Z,87
2023-04-23T04:31:32.864Z,87
2023-04-23T04:33:33.023Z,87
2023-04-23T04:35:32.763Z,87
2023-04-23T04:39:32.917Z,87
2023-04-23T04:41:32.910Z,87
2023-04-23T04:43:33.015Z,87
2023-04-23T04:47:32.985Z,88
2023-04-23T04:49:33.271Z,88
2023-04-23T04:51:33.224Z,88
2023-04-23T04:53:33.384Z,87
2023-04-23T04:55:33.205Z,88
2023-04-23T04:57:31.693Z,88
2023-04-23T05:01:32.030Z,88
2023-04-23T05:03:33.454Z,88
2023-04-23T05:05:33.509Z,88
2023-04-23T05:07:33.656Z,88
2023-04-23T05:09:33.436Z,88
2023-04-23T05:11:33.893Z,88
2023-04-23T05:13:32.195Z,88
2023-04-23T05:15:33.648Z,88
2023-04-23T05:17:33.744Z,88
2023-04-23T05:19:33.977Z,88
2023-04-23T05:21:33.755Z,88
2023-04-23T05:23:33.885Z,88
2023-04-23T05:25:34.707Z,88
2023-04-23T05:27:33.960Z,88
2023-04-23T05:31:34.166Z,88
2023-04-23T05:33:42.784Z,88
2023-04-23T05:35:34.586Z,88
2023-04-23T05:39:34.135Z,88
2023-04-23T05:41:34.320Z,88
2023-04-23T05:43:34.316Z,88
2023-04-23T05:45:34.419Z,88
2023-04-23T05:47:34.328Z,88
2023-04-23T05:49:34.345Z,88
2023-04-23T05:51:34.612Z,88
2023-04-23T05:53:34.740Z,88
2023-04-23T05:55:34.618Z,88
2023-04-23T05:57:34.852Z,88
2023-04-23T05:59:35.045Z,88
2023-04-23T06:01:34.932Z,88
2023-04-23T06:03:34.971Z,88
2023-04-23T06:05:34.746Z,88
2023-04-23T06:07:35.134Z,88
2023-04-23T06:09:35.218Z,88
2023-04-23T06:11:35.220Z,88
2023-04-23T06:13:35.266Z,88
2023-04-23T06:15:35.252Z,88
2023-04-23T06:17:35.566Z,88
2023-04-23T06:19:35.452Z,88
2023-04-23T06:21:35.431Z,88
2023-04-23T06:23:35.627Z,88
2023-04-23T06:25:35.625Z,88
2023-04-23T06:29:35.753Z,88
2023-04-23T06:31:35.771Z,88
2023-04-23T06:33:35.737Z,88
2023-04-23T06:35:36.001Z,88
2023-04-23T06:37:35.949Z,88
2023-04-23T06:39:36.097Z,87
2023-04-23T06:41:36.411Z,87
2023-04-23T06:43:36.169Z,86
2023-04-23T06:45:36.165Z,86
2023-04-23T06:47:36.441Z,87
2023-04-23T06:49:36.257Z,87
2023-04-23T06:51:34.814Z,87
2023-04-23T06:53:36.422Z,87
2023-04-23T06:55:34.888Z,87
2023-04-23T06:57:36.493Z,87
2023-04-23T06:59:36.462Z,87
2023-04-23T07:01:36.954Z,86
2023-04-23T07:05:36.745Z,86
2023-04-23T07:07:36.834Z,85
2023-04-23T07:09:36.712Z,86
2023-04-23T07:11:36.838Z,86
2023-04-23T07:13:36.626Z,86
2023-04-23T07:15:36.825Z,86
2023-04-23T07:17:37.089Z,86
2023-04-23T07:21:37.684Z,85
2023-04-23T07:23:37.102Z,85
2023-04-23T07:25:37.510Z,86
2023-04-23T07:27:36.981Z,85
2023-04-23T07:29:37.056Z,85
2023-04-23T07:31:37.702Z,85
2023-04-23T07:33:37.360Z,84
2023-04-23T07:35:37.597Z,84
2023-04-23T07:37:37.553Z,83
2023-04-23T07:39:38.212Z,83
2023-04-23T07:43:37.717Z,83
2023-04-23T07:45:37.683Z,82
2023-04-23T07:47:37.853Z,83
2023-04-23T07:49:37.805Z,82
2023-04-23T07:51:37.792Z,83
2023-04-23T07:53:38.004Z,82
2023-04-23T07:55:37.955Z,82
2023-04-23T07:57:38.030Z,82
2023-04-23T07:59:38.065Z,82
2023-04-23T08:01:38.158Z,82
2023-04-23T08:03:38.228Z,82
2023-04-23T08:05:38.453Z,81
2023-04-23T08:07:38.309Z,82
2023-04-23T08:09:38.756Z,82
2023-04-23T08:11:38.446Z,82
2023-04-23T08:13:38.422Z,83
2023-04-23T08:17:38.571Z,83
2023-04-23T08:19:38.610Z,83
2023-04-23T08:21:38.684Z,83
2023-04-23T08:23:38.949Z,83
2023-04-23T08:25:38.791Z,83
2023-04-23T08:27:38.838Z,83
2023-04-23T08:29:39.000Z,82
2023-04-23T08:31:39.025Z,82
2023-04-23T08:35:38.970Z,81
2023-04-23T08:39:40.689Z,80
2023-04-23T08:41:39.168Z,80
2023-04-23T08:43:39.335Z,80
2023-04-23T08:45:39.948Z,80
2023-04-23T08:47:39.691Z,80
2023-04-23T08:49:39.274Z,79
2023-04-23T08:51:39.471Z,79
2023-04-23T08:53:39.940Z,79
2023-04-23T08:55:39.596Z,78
2023-04-23T08:57:39.774Z,78
2023-04-23T08:59:39.970Z,79
2023-04-23T09:01:39.922Z,79
2023-04-23T09:03:39.875Z,78
2023-04-23T09:07:40.007Z,77
2023-04-23T09:09:40.391Z,79
2023-04-23T09:11:40.251Z,77
2023-04-23T09:13:40.141Z,77
2023-04-23T09:15:40.447Z,77
2023-04-23T09:17:40.771Z,77
2023-04-23T09:19:40.586Z,77
2023-04-23T09:21:40.365Z,77
2023-04-23T09:23:40.388Z,77
2023-04-23T09:25:40.549Z,76
2023-04-23T09:27:40.625Z,78
2023-04-23T09:29:40.787Z,78
2023-04-23T09:31:40.793Z,76
2023-04-23T09:33:40.848Z,77
2023-04-23T09:35:41.014Z,73
2023-04-23T09:37:40.927Z,75
2023-04-23T09:39:41.219Z,75
2023-04-23T09:41:41.580Z,75
2023-04-23T09:43:41.134Z,74
2023-04-23T09:45:41.181Z,77
2023-04-23T09:47:41.571Z,74
2023-04-23T09:49:41.391Z,75
2023-04-23T09:51:41.956Z,76
2023-04-23T09:53:41.633Z,76
2023-04-23T09:56:04.212Z,78
2023-04-23T09:58:04.224Z,76
2023-04-23T10:04:04.291Z,77
2023-04-23T10:06:04.447Z,76
2023-04-23T10:08:04.233Z,75
2023-04-23T10:10:04.227Z,77
2023-04-23T10:12:04.232Z,76
2023-04-23T10:14:04.239Z,76
2023-04-23T10:16:14.424Z,73
2023-04-23T10:18:04.254Z,72
2023-04-23T10:20:04.269Z,73
2023-04-23T10:22:18.328Z,73
2023-04-23T10:24:04.216Z,73
2023-04-23T10:26:04.228Z,70
2023-04-23T10:28:04.237Z,70
2023-04-23T10:30:06.107Z,71
2023-04-23T10:32:04.242Z,69
2023-04-23T10:34:04.275Z,71
2023-04-23T10:36:04.228Z,73
2023-04-23T10:38:04.223Z,73
2023-04-23T10:40:04.238Z,72
2023-04-23T10:44:04.238Z,71
2023-04-23T10:46:04.285Z,70
2023-04-23T10:48:04.237Z,72
2023-04-23T10:50:04.251Z,73
2023-04-23T10:52:17.539Z,73
2023-04-23T10:54:04.236Z,72
2023-04-23T10:56:04.225Z,72
2023-04-23T10:58:04.334Z,69
2023-04-23T11:00:04.237Z,70
2023-04-23T11:02:04.259Z,70
2023-04-23T11:04:04.380Z,70
2023-04-23T11:08:14.985Z,70
2023-04-23T11:10:04.238Z,70
2023-04-23T11:12:04.225Z,71
2023-04-23T11:14:04.241Z,71
2023-04-23T11:16:04.266Z,70
2023-04-23T11:18:04.271Z,73
2023-04-23T11:20:04.277Z,72
2023-04-23T11:22:04.235Z,70
2023-04-23T11:24:04.220Z,68
2023-04-23T11:26:04.235Z,68
2023-04-23T11:28:04.293Z,67
2023-04-23T11:30:04.262Z,68
2023-04-23T11:32:04.327Z,67
2023-04-23T11:34:04.233Z,70
2023-04-23T11:36:04.278Z,69
2023-04-23T11:38:04.247Z,69
2023-04-23T11:40:04.296Z,67
2023-04-23T11:42:04.278Z,68
2023-04-23T11:44:04.289Z,67
2023-04-23T11:46:04.302Z,67
2023-04-23T11:48:04.261Z,68
2023-04-23T11:50:04.267Z,68
2023-04-23T11:54:04.325Z,67
2023-04-23T11:56:04.238Z,66
2023-04-23T12:00:04.297Z,66
2023-04-23T12:02:04.304Z,67
2023-04-23T12:04:04.425Z,67
2023-04-23T12:06:04.324Z,64
2023-04-23T12:08:04.318Z,64
2023-04-23T12:10:04.263Z,66
2023-04-23T12:12:04.225Z,65
2023-04-23T12:14:04.246Z,66
2023-04-23T12:16:04.387Z,66
2023-04-23T12:18:04.300Z,65
2023-04-23T12:22:04.268Z,65
2023-04-23T12:24:04.267Z,65
2023-04-23T12:26:04.256Z,66
2023-04-23T12:28:04.272Z,66
2023-04-23T12:30:06.549Z,66
2023-04-23T12:32:04.311Z,64
2023-04-23T12:34:04.243Z,65
2023-04-23T12:36:04.248Z,66
2023-04-23T12:38:04.234Z,65
2023-04-23T12:40:04.260Z,66
2023-04-23T12:42:04.263Z,66
2023-04-23T12:44:04.248Z,64
2023-04-23T12:46:04.283Z,64
2023-04-23T12:48:04.453Z,63
2023-04-23T12:50:04.246Z,62
2023-04-23T12:52:04.276Z,63
2023-04-23T12:54:04.298Z,64
2023-04-23T12:56:04.362Z,64
2023-04-23T12:58:04.260Z,65
2023-04-23T13:00:04.250Z,64
2023-04-23T13:02:04.299Z,64
2023-04-23T13:04:04.319Z,63
2023-04-23T13:06:04.251Z,67
2023-04-23T13:08:04.244Z,64
2023-04-23T13:10:04.270Z,63
2023-04-23T13:14:04.249Z,64
2023-04-23T13:16:04.299Z,64
2023-04-23T13:18:04.262Z,64
2023-04-23T13:20:04.287Z,64
2023-04-23T13:22:04.271Z,63
2023-04-23T13:24:04.257Z,63
2023-04-23T13:26:04.290Z,63
2023-04-23T13:28:04.328Z,63
2023-04-23T13:30:04.243Z,63
2023-04-23T13:32:04.354Z,64
2023-04-23T13:34:04.264Z,62
2023-04-23T13:36:04.290Z,62
2023-04-23T13:38:04.262Z,68
2023-04-23T13:42:09.277Z,61
2023-04-23T13:44:04.270Z,63
2023-04-23T13:46:04.303Z,60
2023-04-23T13:48:04.261Z,62
2023-04-23T13:50:04.299Z,62
2023-04-23T13:52:04.390Z,62
2023-04-23T13:54:04.299Z,61
2023-04-23T13:56:04.238Z,59
2023-04-23T13:58:04.251Z,61
2023-04-23T14:00:04.300Z,61
2023-04-23T14:02:04.310Z,61
2023-04-23T14:04:04.466Z,61
2023-04-23T14:06:04.259Z,61
2023-04-23T14:08:04.310Z,62
2023-04-23T14:10:04.273Z,62
2023-04-23T14:12:04.252Z,63
2023-04-23T14:14:04.267Z,62
2023-04-23T14:16:04.337Z,64
2023-04-23T14:18:04.292Z,64
2023-04-23T14:20:04.269Z,63
2023-04-23T14:22:04.255Z,62
2023-04-23T14:24:04.382Z,62
2023-04-23T14:26:04.265Z,63
2023-04-23T14:28:04.281Z,63
2023-04-23T14:30:04.289Z,62
2023-04-23T14:32:04.363Z,61
2023-04-23T14:34:04.250Z,61
2023-04-23T14:36:04.256Z,61
2023-04-23T14:38:04.249Z,61
2023-04-23T14:40:04.500Z,62
2023-04-23T14:42:04.277Z,63
2023-04-23T14:46:04.262Z,63
2023-04-23T14:48:04.339Z,63
2023-04-23T14:52:04.283Z,63
2023-04-23T14:54:04.261Z,63
2023-04-23T14:56:04.299Z,62
2023-04-23T14:58:04.267Z,62
2023-04-23T15:00:04.275Z,63
2023-04-23T15:02:04.349Z,64
2023-04-23T15:04:04.439Z,64
2023-04-23T15:06:04.277Z,64
2023-04-23T15:08:04.263Z,64
2023-04-23T15:10:04.289Z,64
2023-04-23T15:12:04.265Z,65
2023-04-23T15:14:04.266Z,65
2023-04-23T15:16:04.268Z,65
2023-04-23T15:18:04.273Z,65
2023-04-23T15:20:04.319Z,64
2023-04-23T15:22:04.255Z,66
2023-04-23T15:24:04.266Z,65
2023-04-23T15:26:04.294Z,65
2023-04-23T15:28:04.322Z,66
2023-04-23T15:30:04.279Z,66
2023-04-23T15:32:04.332Z,65
2023-04-23T15:34:04.252Z,65
2023-04-23T15:36:04.313Z,66
2023-04-23T15:38:04.268Z,66
2023-04-23T15:40:04.472Z,66
2023-04-23T15:42:26.376Z,66
2023-04-23T15:44:04.261Z,67
2023-04-23T15:46:04.278Z,67
2023-04-23T15:48:04.356Z,64
2023-04-23T15:50:04.233Z,66
2023-04-23T15:52:04.224Z,66
2023-04-23T15:54:04.248Z,66
2023-04-23T15:56:04.348Z,65
2023-04-23T15:58:04.233Z,65
2023-04-23T16:00:04.243Z,66
2023-04-23T16:02:04.260Z,67
2023-04-23T16:06:04.242Z,66
2023-04-23T16:08:04.249Z,65
2023-04-23T16:10:04.232Z,64
2023-04-23T16:12:04.228Z,65
2023-04-23T16:14:04.247Z,64
2023-04-23T16:16:04.225Z,64
2023-04-23T16:18:04.238Z,64
2023-04-23T16:20:04.227Z,65
2023-04-23T16:22:04.242Z,65
2023-04-23T16:24:04.254Z,65
2023-04-23T16:26:04.236Z,65
2023-04-23T16:28:04.239Z,65
2023-04-23T16:30:04.225Z,64
2023-04-23T16:32:04.251Z,64
2023-04-23T16:34:04.235Z,64
2023-04-23T16:36:04.235Z,64
2023-04-23T16:38:04.243Z,64
2023-04-23T16:40:04.266Z,64
2023-04-23T16:42:04.230Z,64
2023-04-23T16:44:04.273Z,65
2023-04-23T16:46:04.273Z,65
2023-04-23T16:48:04.237Z,66
2023-04-23T16:50:04.281Z,66
2023-04-23T16:52:04.254Z,67
2023-04-23T16:54:04.296Z,67
2023-04-23T16:56:04.242Z,67
2023-04-23T16:58:04.252Z,68
2023-04-23T17:00:04.237Z,68
2023-04-23T17:02:04.325Z,67
2023-04-23T17:04:04.423Z,67
2023-04-23T17:06:04.254Z,68
2023-04-23T17:08:04.242Z,68
2023-04-23T17:10:04.261Z,68
2023-04-23T17:12:04.274Z,69
2023-04-23T17:14:04.239Z,68
2023-04-23T17:18:04.263Z,69
2023-04-23T17:20:04.252Z,70
2023-04-23T17:22:04.258Z,70
2023-04-23T17:24:04.249Z,71
2023-04-23T17:26:04.236Z,71
2023-04-23T17:28:04.237Z,72
2023-04-23T17:30:04.248Z,72
2023-04-23T17:32:04.265Z,72
2023-04-23T17:34:04.240Z,72
2023-04-23T17:36:04.248Z,72
2023-04-23T17:38:04.250Z,72
2023-04-23T17:40:04.239Z,72
2023-04-23T17:42:04.243Z,73
2023-04-23T17:44:04.240Z,73
2023-04-23T17:46:04.465Z,73
2023-04-23T17:48:04.298Z,74
2023-04-23T17:50:04.251Z,74
2023-04-23T17:52:04.241Z,75
2023-04-23T17:54:04.255Z,75
2023-04-23T17:56:04.265Z,76
2023-04-23T17:58:04.262Z,76
2023-04-23T18:02:04.291Z,77
2023-04-23T18:04:04.407Z,77
2023-04-23T18:06:04.408Z,77
2023-04-23T18:08:04.260Z,76
2023-04-23T18:12:04.281Z,78
2023-04-23T18:14:04.260Z,78
2023-04-23T18:16:04.298Z,79
2023-04-23T18:18:04.266Z,79
2023-04-23T18:20:04.301Z,79
2023-04-23T18:22:04.271Z,79
2023-04-23T18:24:04.295Z,78
2023-04-23T18:26:04.269Z,79
2023-04-23T18:28:04.256Z,79
2023-04-23T18:30:04.258Z,81
2023-04-23T18:32:04.282Z,81
2023-04-23T18:34:04.312Z,81
2023-04-23T18:36:04.268Z,81
2023-04-23T18:38:04.249Z,81
2023-04-23T18:40:04.292Z,81
2023-04-23T18:42:04.268Z,81
2023-04-23T18:44:04.246Z,78
2023-04-23T18:46:04.287Z,76
2023-04-23T18:48:04.391Z,77
2023-04-23T18:50:04.368Z,77
2023-04-23T18:52:04.260Z,76
2023-04-23T18:54:04.285Z,78
2023-04-23T18:56:04.261Z,80
2023-04-23T18:58:04.269Z,79
2023-04-23T19:00:04.304Z,79
2023-04-23T19:02:04.292Z,79
2023-04-23T19:04:04.334Z,80
2023-04-23T19:06:04.267Z,80
2023-04-23T19:08:04.259Z,81
2023-04-23T19:10:04.315Z,81
2023-04-23T19:12:04.258Z,81
2023-04-23T19:14:04.272Z,81
2023-04-23T19:16:04.278Z,81
2023-04-23T19:18:04.300Z,80
2023-04-23T19:20:04.256Z,80
2023-04-23T19:22:04.259Z,81
2023-04-23T19:24:04.251Z,80
2023-04-23T19:26:04.262Z,81
2023-04-23T19:28:04.247Z,82
2023-04-23T19:30:04.253Z,81
2023-04-23T19:32:04.291Z,81
2023-04-23T19:34:04.276Z,82
2023-04-23T19:36:04.248Z,82
2023-04-23T19:38:04.253Z,81
2023-04-23T19:40:04.254Z,81
2023-04-23T19:42:04.254Z,81
2023-04-23T19:44:04.279Z,81
2023-04-23T19:46:04.274Z,81
2023-04-23T19:48:04.357Z,82
2023-04-23T19:50:04.290Z,82
2023-04-23T19:52:04.248Z,82
2023-04-23T19:54:04.258Z,82
2023-04-23T19:56:04.265Z,82
2023-04-23T19:58:04.263Z,82
2023-04-23T20:02:04.287Z,82
2023-04-23T20:04:04.325Z,82
2023-04-23T20:06:04.271Z,82
2023-04-23T20:08:04.267Z,82
2023-04-23T20:10:04.277Z,82
2023-04-23T20:12:04.251Z,82
2023-04-23T20:14:04.245Z,82
2023-04-23T20:16:04.270Z,82
2023-04-23T20:18:04.261Z,83
2023-04-23T20:20:04.501Z,83
2023-04-23T20:22:04.269Z,83
2023-04-23T20:24:04.248Z,83
2023-04-23T20:28:04.251Z,83
2023-04-23T20:30:04.262Z,83
2023-04-23T20:32:04.254Z,84
2023-04-23T20:34:04.259Z,84
2023-04-23T20:36:04.256Z,84
2023-04-23T20:38:04.263Z,83
2023-04-23T20:40:04.274Z,83
2023-04-23T20:42:04.253Z,83
2023-04-23T20:44:04.273Z,84
2023-04-23T20:48:04.293Z,84
2023-04-23T20:50:04.286Z,84
2023-04-23T20:54:04.260Z,84
2023-04-23T20:56:04.271Z,83
2023-04-23T20:58:04.257Z,83
2023-04-23T21:00:04.298Z,84
2023-04-23T21:02:04.279Z,85
2023-04-23T21:04:04.376Z,85
2023-04-23T21:06:04.276Z,84
2023-04-23T21:08:04.268Z,85
2023-04-23T21:10:04.307Z,85
2023-04-23T21:12:04.282Z,85
2023-04-23T21:14:04.258Z,85
2023-04-23T21:16:04.333Z,85
2023-04-23T21:18:04.336Z,85
2023-04-23T21:20:04.279Z,85
2023-04-23T21:22:04.275Z,85
2023-04-23T21:24:04.300Z,86
2023-04-23T21:26:04.260Z,86
2023-04-23T21:28:04.261Z,86
2023-04-23T21:30:04.271Z,86
2023-04-23T21:32:04.273Z,86
2023-04-23T21:34:04.271Z,87
2023-04-23T21:36:04.266Z,87
2023-04-23T21:38:04.268Z,87
2023-04-23T21:40:04.243Z,87
2023-04-23T21:42:04.277Z,87
2023-04-23T21:44:04.272Z,87
2023-04-23T21:46:04.258Z,87
2023-04-23T21:48:04.289Z,88
2023-04-23T21:50:04.282Z,87
2023-04-23T21:52:04.258Z,87
2023-04-23T21:54:04.265Z,88
2023-04-23T21:56:04.261Z,88
2023-04-23T21:58:16.267Z,88
2023-04-23T22:00:04.331Z,88
2023-04-23T22:02:04.300Z,88
2023-04-23T22:04:04.374Z,88
2023-04-23T22:06:04.263Z,88
2023-04-23T22:08:04.265Z,88
2023-04-23T22:10:04.274Z,88
2023-04-23T22:12:04.272Z,88
2023-04-23T22:14:04.398Z,88
2023-04-23T22:16:08.643Z,88
2023-04-23T22:18:04.296Z,89
2023-04-23T22:20:04.303Z,89
2023-04-23T22:22:04.280Z,89
2023-04-23T22:24:04.291Z,89
2023-04-23T22:26:04.284Z,89
2023-04-23T22:28:04.266Z,89
2023-04-23T22:30:04.288Z,89
2023-04-23T22:34:04.295Z,89
2023-04-23T22:36:04.279Z,89
2023-04-23T22:40:04.292Z,89
2023-04-23T22:42:04.272Z,89
2023-04-23T22:44:04.281Z,89
2023-04-23T22:46:04.270Z,89
2023-04-23T22:48:04.394Z,89
2023-04-23T22:52:04.289Z,89
2023-04-23T22:54:04.289Z,89
2023-04-23T22:56:04.269Z,89
2023-04-23T22:58:04.284Z,89
2023-04-23T23:00:04.275Z,89
2023-04-23T23:02:04.263Z,89
2023-04-23T23:04:04.319Z,89
2023-04-23T23:06:04.282Z,89
2023-04-23T23:08:04.282Z,89
2023-04-23T23:10:04.326Z,89
2023-04-23T23:12:04.283Z,89
2023-04-23T23:14:04.270Z,89
2023-04-23T23:16:04.309Z,89
2023-04-23T23:18:04.325Z,88
2023-04-23T23:20:04.296Z,88
2023-04-23T23:22:04.270Z,88
2023-04-23T23:24:04.272Z,88
2023-04-23T23:30:04.293Z,88
2023-04-23T23:32:04.304Z,88
2023-04-23T23:36:04.284Z,88
2023-04-23T23:38:04.286Z,88
2023-04-23T23:40:04.321Z,89
2023-04-23T23:42:04.292Z,89
2023-04-23T23:44:04.289Z,89
2023-04-23T23:46:04.338Z,88
2023-04-23T23:48:04.326Z,88
2023-04-23T23:50:04.287Z,88
2023-04-23T23:52:04.285Z,88
2023-04-23T23:54:04.291Z,89
2023-04-23T23:56:04.289Z,89
2023-04-23T23:58:04.283Z,89
